createdAt,value
2023-05-23T00:01:55.285Z,2.30
2023-05-23T00:04:27.309Z,3.80
2023-05-23T00:06:54.559Z,2.80
2023-05-23T00:09:21.716Z,4.07
2023-05-23T00:11:48.756Z,6.78
2023-05-23T00:14:16.007Z,6.18
2023-05-23T00:16:45.046Z,8.98
2023-05-23T00:19:15.082Z,3.35
2023-05-23T00:21:49.925Z,4.28
2023-05-23T00:24:19.113Z,3.40
2023-05-23T00:26:47.177Z,2.95
2023-05-23T00:29:18.466Z,5.13
2023-05-23T00:31:48.913Z,8.27
2023-05-23T00:34:19.718Z,2.25
2023-05-23T00:36:50.636Z,2.97
2023-05-23T00:39:21.196Z,4.32
2023-05-23T00:41:53.307Z,4.63
2023-05-23T00:44:22.129Z,2.20
2023-05-23T00:46:57.021Z,7.00
2023-05-23T00:49:24.795Z,3.00
2023-05-23T00:51:52.714Z,6.80
2023-05-23T00:54:29.655Z,2.92
2023-05-23T00:56:56.949Z,4.13
2023-05-23T00:59:27.603Z,3.92
2023-05-23T01:01:57.003Z,6.05
2023-05-23T01:04:26.668Z,4.25
2023-05-23T01:06:57.934Z,5.38
2023-05-23T01:12:25.119Z,5.65
2023-05-23T01:15:09.004Z,2.85
2023-05-23T01:17:50.930Z,3.15
2023-05-23T01:20:29.725Z,4.28
2023-05-23T01:23:00.522Z,5.32
2023-05-23T01:25:46.779Z,2.63
2023-05-23T01:28:19.670Z,5.77
2023-05-23T01:30:52.479Z,5.05
2023-05-23T01:33:21.168Z,5.20
2023-05-23T01:35:49.019Z,4.30
2023-05-23T01:38:16.067Z,3.72
2023-05-23T01:40:43.304Z,7.00
2023-05-23T01:43:10.987Z,4.65
2023-05-23T01:45:38.055Z,4.60
2023-05-23T01:48:06.457Z,11.82
2023-05-23T01:50:34.207Z,3.42
2023-05-23T01:53:01.645Z,7.43
2023-05-23T01:55:29.365Z,2.88
2023-05-23T01:57:57.883Z,3.50
2023-05-23T02:00:25.755Z,2.80
2023-05-23T02:02:53.059Z,3.63
2023-05-23T02:05:20.201Z,6.47
2023-05-23T02:07:47.206Z,5.25
2023-05-23T02:10:14.371Z,4.57
2023-05-23T02:12:41.425Z,3.22
2023-05-23T02:15:09.383Z,8.98
2023-05-23T02:17:36.832Z,3.95
2023-05-23T02:20:04.261Z,3.35
2023-05-23T02:22:31.426Z,4.75
2023-05-23T02:24:58.509Z,3.67
2023-05-23T02:27:25.553Z,4.53
2023-05-23T02:29:52.537Z,5.70
2023-05-23T02:32:19.539Z,5.40
2023-05-23T02:34:50.600Z,6.35
2023-05-23T02:37:17.704Z,3.97
2023-05-23T02:39:44.810Z,5.63
2023-05-23T02:42:11.991Z,3.78
2023-05-23T02:44:39.228Z,3.08
2023-05-23T02:47:07.638Z,5.43
2023-05-23T02:49:34.873Z,6.20
2023-05-23T02:52:02.153Z,5.13
2023-05-23T02:54:29.457Z,4.65
2023-05-23T02:56:57.034Z,2.47
2023-05-23T02:59:24.265Z,4.40
2023-05-23T03:01:51.340Z,6.40
2023-05-23T03:04:18.665Z,2.63
2023-05-23T03:06:45.757Z,4.75
2023-05-23T03:09:12.773Z,3.00
2023-05-23T03:11:40.507Z,6.38
2023-05-23T03:14:07.563Z,4.35
2023-05-23T03:16:34.642Z,6.57
2023-05-23T03:19:01.823Z,5.38
2023-05-23T03:21:29.841Z,4.50
2023-05-23T03:23:56.894Z,3.42
2023-05-23T03:26:24.038Z,6.95
2023-05-23T03:28:51.435Z,3.80
2023-05-23T03:31:19.934Z,5.82
2023-05-23T03:33:47.020Z,11.68
2023-05-23T03:36:14.055Z,5.57
2023-05-23T03:38:42.149Z,4.93
2023-05-23T03:41:09.148Z,6.35
2023-05-23T03:43:36.854Z,3.63
2023-05-23T03:46:04.015Z,4.75
2023-05-23T03:48:31.297Z,3.00
2023-05-23T03:50:58.351Z,4.88
2023-05-23T03:53:25.499Z,3.55
2023-05-23T03:55:54.100Z,3.13
2023-05-23T03:58:21.613Z,6.30
2023-05-23T04:00:53.361Z,4.43
2023-05-23T04:03:21.797Z,7.38
2023-05-23T04:05:50.810Z,4.97
2023-05-23T04:08:22.015Z,4.55
2023-05-23T04:10:50.876Z,4.13
2023-05-23T04:13:18.098Z,5.70
2023-05-23T04:15:46.052Z,5.07
2023-05-23T04:18:15.126Z,5.32
2023-05-23T04:20:43.064Z,4.25
2023-05-23T04:23:11.239Z,5.07
2023-05-23T04:25:41.520Z,5.85
2023-05-23T04:28:14.276Z,6.43
2023-05-23T04:30:42.815Z,4.10
2023-05-23T04:33:10.567Z,5.78
2023-05-23T04:35:41.049Z,3.05
2023-05-23T04:38:09.082Z,4.40
2023-05-23T04:40:36.602Z,4.70
2023-05-23T04:43:22.057Z,9.40
2023-05-23T04:45:55.189Z,6.57
2023-05-23T04:48:36.426Z,8.07
2023-05-23T04:51:06.682Z,8.98
2023-05-23T04:53:37.136Z,6.07
2023-05-23T04:56:04.348Z,4.45
2023-05-23T04:58:32.067Z,5.15
2023-05-23T05:01:03.972Z,5.32
2023-05-23T05:03:31.875Z,4.35
2023-05-23T05:05:59.193Z,7.82
2023-05-23T05:08:26.427Z,5.15
2023-05-23T05:10:55.538Z,6.45
2023-05-23T05:13:23.148Z,4.20
2023-05-23T05:15:53.019Z,3.13
2023-05-23T05:18:20.444Z,6.15
2023-05-23T05:20:47.722Z,4.97
2023-05-23T05:23:16.234Z,4.45
2023-05-23T05:25:43.396Z,8.43
2023-05-23T05:28:10.608Z,6.70
2023-05-23T05:30:46.482Z,7.88
2023-05-23T05:33:14.256Z,4.55
2023-05-23T05:35:41.787Z,7.57
2023-05-23T05:38:11.067Z,4.88
2023-05-23T05:40:39.802Z,4.05
2023-05-23T05:43:07.140Z,5.50
2023-05-23T05:45:34.986Z,8.15
2023-05-23T05:48:02.358Z,8.00
2023-05-23T05:50:30.106Z,4.80
2023-05-23T05:52:57.126Z,8.60
2023-05-23T05:55:24.465Z,6.38
2023-05-23T05:57:54.655Z,9.75
2023-05-23T06:00:22.693Z,6.13
2023-05-23T06:02:57.731Z,5.90
2023-05-23T06:05:39.509Z,8.20
2023-05-23T06:08:06.861Z,8.93
2023-05-23T06:10:34.183Z,6.68
2023-05-23T06:13:02.024Z,4.90
2023-05-23T06:15:30.632Z,9.18
2023-05-23T06:17:57.773Z,4.85
2023-05-23T06:20:26.023Z,7.05
2023-05-23T06:22:54.512Z,3.42
2023-05-23T06:25:21.917Z,4.50
2023-05-23T06:27:50.128Z,7.75
2023-05-23T06:30:17.362Z,5.47
2023-05-23T06:32:45.648Z,5.82
2023-05-23T06:35:12.689Z,4.70
2023-05-23T06:37:43.592Z,8.38
2023-05-23T06:40:11.542Z,4.40
2023-05-23T06:42:38.697Z,6.93
2023-05-23T06:45:18.269Z,4.45
2023-05-23T06:47:45.782Z,5.88
2023-05-23T06:50:12.999Z,8.45
2023-05-23T06:52:42.915Z,4.47
2023-05-23T06:55:14.580Z,5.22
2023-05-23T06:57:41.790Z,8.63
2023-05-23T07:00:09.495Z,8.15
2023-05-23T07:02:46.008Z,8.40
2023-05-23T07:05:13.178Z,4.47
2023-05-23T07:07:47.391Z,3.70
2023-05-23T07:10:15.195Z,5.35
2023-05-23T07:12:42.510Z,8.48
2023-05-23T07:15:11.864Z,7.35
2023-05-23T07:17:48.655Z,6.50
2023-05-23T07:20:16.228Z,5.95
2023-05-23T07:22:45.415Z,4.75
2023-05-23T07:25:12.526Z,4.18
2023-05-23T07:27:40.463Z,7.38
2023-05-23T07:30:09.922Z,3.70
2023-05-23T07:32:38.392Z,3.63
2023-05-23T07:35:07.557Z,7.63
2023-05-23T07:37:34.667Z,6.55
2023-05-23T07:40:01.789Z,5.65
2023-05-23T07:42:28.997Z,3.75
2023-05-23T07:44:56.165Z,4.25
2023-05-23T07:47:24.461Z,7.50
2023-05-23T07:49:53.296Z,6.57
2023-05-23T07:52:22.826Z,5.80
2023-05-23T07:54:49.944Z,7.28
2023-05-23T07:57:18.065Z,3.60
2023-05-23T07:59:45.608Z,4.53
2023-05-23T08:02:12.946Z,6.72
2023-05-23T08:04:41.430Z,5.97
2023-05-23T08:07:09.860Z,5.55
2023-05-23T08:09:57.119Z,5.15
2023-05-23T08:12:24.166Z,6.50
2023-05-23T08:15:00.094Z,7.00
2023-05-23T08:17:36.436Z,5.35
2023-05-23T08:20:05.404Z,7.38
2023-05-23T08:22:32.838Z,11.02
2023-05-23T08:24:59.988Z,12.13
2023-05-23T08:27:30.454Z,5.30
2023-05-23T08:30:04.061Z,4.47
2023-05-23T08:32:31.225Z,4.93
2023-05-23T08:34:58.760Z,6.57
2023-05-23T08:37:26.462Z,9.38
2023-05-23T08:39:53.567Z,3.70
2023-05-23T08:42:40.853Z,3.75
2023-05-23T08:45:10.442Z,6.20
2023-05-23T08:47:39.121Z,6.20
2023-05-23T08:50:08.489Z,9.77
2023-05-23T08:52:38.017Z,6.07
2023-05-23T08:55:06.241Z,3.80
2023-05-23T08:57:36.103Z,4.35
2023-05-23T09:00:20.298Z,5.38
2023-05-23T09:02:48.846Z,2.80
2023-05-23T09:05:36.267Z,5.22
2023-05-23T09:08:03.579Z,9.93
2023-05-23T09:10:30.782Z,3.75
2023-05-23T09:12:59.071Z,5.57
2023-05-23T09:15:27.548Z,6.72
2023-05-23T09:18:01.977Z,7.28
2023-05-23T09:20:30.875Z,9.15
2023-05-23T09:23:06.408Z,8.95
2023-05-23T09:25:35.326Z,7.60
2023-05-23T09:28:04.730Z,6.32
2023-05-23T09:30:34.699Z,6.00
2023-05-23T09:33:05.524Z,6.47
2023-05-23T09:35:34.247Z,5.00
2023-05-23T09:38:01.743Z,7.05
2023-05-23T09:40:33.719Z,10.23
2023-05-23T09:43:05.665Z,3.72
2023-05-23T10:17:37.755Z,6.28
2023-05-23T10:20:10.902Z,5.10
2023-05-23T10:22:38.861Z,5.10
2023-05-23T10:25:07.548Z,4.63
2023-05-23T10:27:34.625Z,7.57
2023-05-23T10:30:02.155Z,6.05
2023-05-23T10:32:31.596Z,5.93
2023-05-23T10:35:18.617Z,6.60
2023-05-23T10:38:09.436Z,5.13
2023-05-23T10:41:08.405Z,7.07
2023-05-23T10:43:48.042Z,7.05
2023-05-23T10:46:16.020Z,8.07
2023-05-23T10:48:44.671Z,8.95
2023-05-23T10:51:15.922Z,7.95
2023-05-23T10:53:47.129Z,11.98
2023-05-23T10:56:24.805Z,7.35
2023-05-23T10:58:55.673Z,11.38
2023-05-23T11:01:23.934Z,5.32
2023-05-23T11:03:55.669Z,6.38
2023-05-23T11:06:30.257Z,5.43
2023-05-23T11:09:13.585Z,5.53
2023-05-23T11:11:49.472Z,8.45
2023-05-23T11:14:17.104Z,7.57
2023-05-23T11:16:49.313Z,6.70
2023-05-23T11:19:19.376Z,4.68
2023-05-23T11:21:49.944Z,4.18
2023-05-23T11:24:17.844Z,4.85
2023-05-23T11:27:00.207Z,6.55
2023-05-23T11:29:29.201Z,4.53
2023-05-23T11:31:57.342Z,3.55
2023-05-23T11:34:27.165Z,5.20
2023-05-23T11:36:57.297Z,4.45
2023-05-23T11:39:24.455Z,10.73
2023-05-23T11:42:01.580Z,6.25
2023-05-23T11:44:29.074Z,5.18
2023-05-23T11:47:07.391Z,2.10
2023-05-23T11:49:38.291Z,4.57
2023-05-23T11:52:06.801Z,4.00
2023-05-23T11:54:33.955Z,4.28
2023-05-23T11:57:02.853Z,6.70
2023-05-23T11:59:30.087Z,5.15
2023-05-23T12:01:57.175Z,3.67
2023-05-23T12:04:26.040Z,4.55
2023-05-23T12:06:53.127Z,3.88
2023-05-23T12:09:20.225Z,4.68
2023-05-23T12:11:48.929Z,3.65
2023-05-23T12:14:17.909Z,3.28
2023-05-23T12:16:47.308Z,5.53
2023-05-23T12:19:17.300Z,2.78
2023-05-23T12:21:49.236Z,4.70
2023-05-23T12:24:19.962Z,4.75
2023-05-23T12:26:58.952Z,7.03
2023-05-23T12:29:35.224Z,3.83
2023-05-23T12:32:04.079Z,4.95
2023-05-23T12:34:31.350Z,2.97
2023-05-23T12:37:14.997Z,2.63
2023-05-23T12:39:46.435Z,4.15
2023-05-23T12:42:13.730Z,6.93
2023-05-23T12:44:43.908Z,7.78
2023-05-23T12:47:11.027Z,5.50
2023-05-23T12:49:38.984Z,12.18
2023-05-23T12:52:06.410Z,10.80
2023-05-23T12:54:33.462Z,16.95
2023-05-23T12:57:00.525Z,17.25
2023-05-23T12:59:27.574Z,13.48
2023-05-23T13:01:55.039Z,10.45
2023-05-23T13:04:22.272Z,12.50
2023-05-23T13:06:49.369Z,13.30
2023-05-23T13:09:16.942Z,20.45
2023-05-23T13:11:44.504Z,16.40
2023-05-23T13:14:11.567Z,9.93
2023-05-23T13:16:39.526Z,13.65
2023-05-23T13:19:07.216Z,12.38
2023-05-23T13:21:34.298Z,13.15
2023-05-23T13:24:01.360Z,9.93
2023-05-23T13:26:28.567Z,11.35
2023-05-23T13:28:55.891Z,12.00
2023-05-23T13:31:22.927Z,9.00
2023-05-23T13:33:50.013Z,9.57
2023-05-23T13:36:17.096Z,13.25
2023-05-23T13:38:44.250Z,10.93
2023-05-23T13:41:11.393Z,19.25
2023-05-23T13:43:38.428Z,10.15
2023-05-23T13:46:05.788Z,9.23
2023-05-23T13:48:32.914Z,11.48
2023-05-23T13:51:01.880Z,14.15
2023-05-23T13:53:28.951Z,9.75
2023-05-23T13:55:56.016Z,15.15
2023-05-23T13:58:23.068Z,15.02
2023-05-23T14:00:50.100Z,9.15
2023-05-23T14:03:19.475Z,11.30
2023-05-23T14:05:46.611Z,12.85
2023-05-23T14:08:14.223Z,11.75
2023-05-23T14:10:42.027Z,14.02
2023-05-23T14:13:09.435Z,9.05
2023-05-23T14:15:38.604Z,10.85
2023-05-23T14:18:05.969Z,16.83
2023-05-23T14:20:33.347Z,16.17
2023-05-23T14:23:00.398Z,9.38
2023-05-23T14:25:27.444Z,14.05
2023-05-23T14:27:54.656Z,10.98
2023-05-23T14:30:21.680Z,9.50
2023-05-23T14:32:49.046Z,7.97
2023-05-23T14:35:16.195Z,11.63
2023-05-23T14:37:43.216Z,10.02
2023-05-23T14:40:10.543Z,9.05
2023-05-23T14:42:38.002Z,8.88
2023-05-23T14:45:05.515Z,8.73
2023-05-23T14:47:32.771Z,7.80
2023-05-23T14:49:59.855Z,8.98
2023-05-23T14:52:26.939Z,12.18
2023-05-23T14:54:54.132Z,8.32
2023-05-23T14:57:21.156Z,9.02
2023-05-23T14:59:48.245Z,7.25
2023-05-23T15:02:15.457Z,12.35
2023-05-23T15:04:42.775Z,6.93
2023-05-23T15:07:09.803Z,8.00
2023-05-23T15:09:36.858Z,9.55
2023-05-23T15:12:05.495Z,8.80
2023-05-23T15:14:32.502Z,7.97
2023-05-23T15:17:07.802Z,13.48
2023-05-23T15:19:38.173Z,15.43
2023-05-23T15:22:05.971Z,9.60
2023-05-23T15:27:11.739Z,9.30
2023-05-23T15:29:46.412Z,11.82
2023-05-23T15:32:13.548Z,13.07
2023-05-23T15:34:40.751Z,12.25
2023-05-23T15:37:07.790Z,10.73
2023-05-23T15:39:35.119Z,7.40
2023-05-23T15:42:02.248Z,14.65
2023-05-23T15:44:29.382Z,8.90
2023-05-23T15:46:56.546Z,12.05
2023-05-23T15:49:26.836Z,8.20
2023-05-23T15:51:55.414Z,13.27
2023-05-23T15:54:23.045Z,12.30
2023-05-23T15:56:50.090Z,9.45
2023-05-23T15:59:17.121Z,11.05
2023-05-23T16:01:44.544Z,9.48
2023-05-23T16:04:11.836Z,9.63
2023-05-23T16:06:39.605Z,9.07
2023-05-23T16:09:06.853Z,12.90
2023-05-23T16:11:33.977Z,9.18
2023-05-23T16:14:01.091Z,9.73
2023-05-23T16:16:28.078Z,10.05
2023-05-23T16:18:55.903Z,8.48
2023-05-23T16:21:23.362Z,20.65
2023-05-23T16:23:50.753Z,8.20
2023-05-23T16:26:19.056Z,10.38
2023-05-23T16:28:46.069Z,9.27
2023-05-23T16:31:15.575Z,13.30
2023-05-23T16:33:46.117Z,10.05
2023-05-23T16:36:13.138Z,9.88
2023-05-23T16:38:40.253Z,14.02
2023-05-23T16:41:07.380Z,10.23
2023-05-23T16:43:34.995Z,11.60
2023-05-23T16:46:02.649Z,10.70
2023-05-23T16:48:29.677Z,10.68
2023-05-23T16:50:57.749Z,17.17
2023-05-23T16:53:25.028Z,7.90
2023-05-23T16:55:52.111Z,14.40
2023-05-23T16:58:21.195Z,9.02
2023-05-23T17:00:48.936Z,8.52
2023-05-23T17:03:16.354Z,8.93
2023-05-23T17:05:43.914Z,10.13
2023-05-23T17:08:11.455Z,13.55
2023-05-23T17:10:38.569Z,9.20
2023-05-23T17:13:05.901Z,8.50
2023-05-23T17:15:33.003Z,15.85
2023-05-23T17:18:00.184Z,7.32
2023-05-23T17:20:27.357Z,9.98
2023-05-23T17:22:55.119Z,11.27
2023-05-23T17:25:22.395Z,20.25
2023-05-23T17:27:49.409Z,13.07
2023-05-23T17:30:18.758Z,9.00
2023-05-23T17:32:47.117Z,10.40
2023-05-23T17:35:14.671Z,9.85
2023-05-23T17:37:43.749Z,7.10
2023-05-23T17:40:11.950Z,8.65
2023-05-23T17:42:42.717Z,11.13
2023-05-23T17:45:10.150Z,11.82
2023-05-23T17:47:37.238Z,13.60
2023-05-23T17:50:08.527Z,11.52
2023-05-23T17:52:35.912Z,17.50
2023-05-23T17:55:03.209Z,16.05
2023-05-23T17:57:31.255Z,13.43
2023-05-23T17:59:59.587Z,19.13
2023-05-23T18:02:29.382Z,12.43
2023-05-23T18:04:56.664Z,14.52
2023-05-23T18:07:23.772Z,11.45
2023-05-23T18:09:50.920Z,13.23
2023-05-23T18:12:18.104Z,13.23
2023-05-23T18:14:45.747Z,10.07
2023-05-23T18:17:13.177Z,10.00
2023-05-23T18:19:40.477Z,10.82
2023-05-23T18:22:07.667Z,7.05
2023-05-23T18:24:34.736Z,13.80
2023-05-23T18:27:03.133Z,8.60
2023-05-23T18:29:30.388Z,11.80
2023-05-23T18:31:57.675Z,14.00
2023-05-23T18:34:26.491Z,10.07
2023-05-23T18:36:54.914Z,12.68
2023-05-23T18:39:22.334Z,12.95
2023-05-23T18:41:49.462Z,12.48
2023-05-23T18:44:20.148Z,8.93
2023-05-23T18:46:48.041Z,12.32
2023-05-23T18:49:15.215Z,11.90
2023-05-23T18:51:42.876Z,12.60
2023-05-23T18:54:09.973Z,9.25
2023-05-23T18:56:37.051Z,11.13
2023-05-23T18:59:04.205Z,13.90
2023-05-23T19:01:31.249Z,12.10
2023-05-23T19:03:58.334Z,15.60
2023-05-23T19:06:25.524Z,14.18
2023-05-23T19:08:52.633Z,12.15
2023-05-23T19:11:19.741Z,12.88
2023-05-23T19:13:46.781Z,12.27
2023-05-23T19:16:13.868Z,16.55
2023-05-23T19:18:40.996Z,10.90
2023-05-23T19:21:07.985Z,8.10
2023-05-23T19:23:35.011Z,10.00
2023-05-23T19:26:02.277Z,6.50
2023-05-23T19:28:29.481Z,7.35
2023-05-23T19:30:56.589Z,4.55
2023-05-23T19:33:23.629Z,8.23
2023-05-23T19:35:51.669Z,4.78
2023-05-23T19:38:19.006Z,4.72
2023-05-23T19:40:47.711Z,3.45
2023-05-23T19:43:15.038Z,4.43
2023-05-23T19:45:42.226Z,3.58
2023-05-23T19:48:09.488Z,4.65
2023-05-23T19:50:36.571Z,6.30
2023-05-23T19:53:03.576Z,6.80
2023-05-23T19:55:30.705Z,6.80
2023-05-23T19:57:57.918Z,4.93
2023-05-23T20:00:25.723Z,3.17
2023-05-23T20:02:52.860Z,6.97
2023-05-23T20:05:20.558Z,7.22
2023-05-23T20:07:47.565Z,5.28
2023-05-23T20:10:15.526Z,3.95
2023-05-23T20:12:42.565Z,3.53
2023-05-23T20:15:09.958Z,2.70
2023-05-23T20:17:37.005Z,5.22
2023-05-23T20:20:04.914Z,2.95
2023-05-23T20:22:31.967Z,3.22
2023-05-23T20:24:59.948Z,2.88
2023-05-23T20:27:27.186Z,3.60
2023-05-23T20:29:54.361Z,5.78
2023-05-23T20:32:21.472Z,6.63
2023-05-23T20:34:48.511Z,3.33
2023-05-23T20:37:15.571Z,5.35
2023-05-23T20:39:42.641Z,2.53
2023-05-23T20:42:15.112Z,7.35
2023-05-23T20:44:42.564Z,3.22
2023-05-23T20:47:12.176Z,5.13
2023-05-23T20:49:40.124Z,4.57
2023-05-23T20:52:07.220Z,5.82
2023-05-23T20:54:35.510Z,3.00
2023-05-23T20:57:02.739Z,6.65
2023-05-23T20:59:32.394Z,5.90
2023-05-23T21:01:59.504Z,7.50
2023-05-23T21:04:26.951Z,4.45
2023-05-23T21:06:54.035Z,9.27
2023-05-23T21:09:21.037Z,5.47
2023-05-23T21:11:48.137Z,5.28
2023-05-23T21:14:15.209Z,4.63
2023-05-23T21:16:42.279Z,7.10
2023-05-23T21:19:09.454Z,5.47
2023-05-23T21:21:37.705Z,7.55
2023-05-23T21:24:06.482Z,7.65
2023-05-23T21:26:33.499Z,5.57
2023-05-23T21:29:00.488Z,7.88
2023-05-23T21:31:40.386Z,8.27
2023-05-23T21:34:22.101Z,8.48
2023-05-23T21:36:51.350Z,9.40
2023-05-23T21:39:18.450Z,6.10
2023-05-23T21:41:45.477Z,8.43
2023-05-23T21:44:13.637Z,5.90
2023-05-23T21:46:40.900Z,6.93
2023-05-23T21:49:07.963Z,6.25
2023-05-23T21:51:34.997Z,4.97
2023-05-23T21:54:02.002Z,5.20
2023-05-23T21:56:29.029Z,5.22
2023-05-23T21:58:56.062Z,8.43
2023-05-23T22:01:23.103Z,7.03
2023-05-23T22:03:50.307Z,7.72
2023-05-23T22:06:17.332Z,5.03
2023-05-23T22:08:46.333Z,10.63
2023-05-23T22:11:13.435Z,5.72
2023-05-23T22:13:40.885Z,6.82
2023-05-23T22:16:08.126Z,6.63
2023-05-23T22:18:51.125Z,9.13
2023-05-23T22:21:19.048Z,5.82
2023-05-23T22:23:46.321Z,5.85
2023-05-23T22:26:14.129Z,8.85
2023-05-23T22:28:41.201Z,8.73
2023-05-23T22:31:09.860Z,4.10
2023-05-23T22:33:39.181Z,5.53
2023-05-23T22:36:06.966Z,7.30
2023-05-23T22:38:34.400Z,4.93
2023-05-23T22:41:01.481Z,7.47
2023-05-23T22:43:29.219Z,6.80
2023-05-23T22:45:56.976Z,3.22
2023-05-23T22:48:28.125Z,4.82
2023-05-23T22:50:55.236Z,4.90
2023-05-23T22:53:24.888Z,4.38
2023-05-23T22:55:51.907Z,4.55
2023-05-23T22:58:18.962Z,5.57
2023-05-23T23:00:46.158Z,5.80
2023-05-23T23:03:15.442Z,4.78
2023-05-23T23:05:42.915Z,4.82
2023-05-23T23:08:10.061Z,4.15
2023-05-23T23:10:37.086Z,6.05
2023-05-23T23:13:04.143Z,4.50
2023-05-23T23:15:34.046Z,6.40
2023-05-23T23:18:01.388Z,6.80
2023-05-23T23:20:28.757Z,9.75
2023-05-23T23:22:56.090Z,9.27
2023-05-23T23:25:23.831Z,5.40
2023-05-23T23:27:51.017Z,6.05
2023-05-23T23:30:18.022Z,5.03
2023-05-23T23:32:44.974Z,4.35
2023-05-23T23:35:12.023Z,3.35
2023-05-23T23:37:39.121Z,5.63
2023-05-23T23:40:08.493Z,7.68
2023-05-23T23:42:35.533Z,4.07
2023-05-23T23:45:02.823Z,5.97
2023-05-23T23:47:29.883Z,4.50
2023-05-23T23:49:56.933Z,5.35
2023-05-23T23:52:24.001Z,4.43
2023-05-23T23:54:51.055Z,4.60
2023-05-23T23:57:18.028Z,6.25
2023-05-23T23:59:45.324Z,4.28
